sensor_id;sensor_type;location;lat;lon;timestamp;temperature;humidity
7658;DHT22;8462;53.156;8.220;2023-09-18T06:46:38;21.40;99.90
7658;DHT22;8462;53.156;8.220;2023-09-18T06:49:06;21.60;99.90
7658;DHT22;8462;53.156;8.220;2023-09-18T06:51:33;21.60;99.90
7658;DHT22;8462;53.156;8.220;2023-09-18T06:54:51;21.70;99.90
7658;DHT22;8462;53.156;8.220;2023-09-18T06:57:21;21.80;99.90
7658;DHT22;8462;53.156;8.220;2023-09-18T06:59:48;21.90;99.90
7658;DHT22;8462;53.156;8.220;2023-09-18T07:02:16;21.90;99.90
7658;DHT22;8462;53.156;8.220;2023-09-18T07:04:43;21.90;99.90
7658;DHT22;8462;53.156;8.220;2023-09-18T07:07:11;22.00;99.90
7658;DHT22;8462;53.156;8.220;2023-09-18T07:09:39;22.00;99.90
7658;DHT22;8462;53.156;8.220;2023-09-18T07:12:07;22.00;99.90
7658;DHT22;8462;53.156;8.220;2023-09-18T07:14:35;22.10;99.90
7658;DHT22;8462;53.156;8.220;2023-09-18T07:17:04;22.10;99.90
7658;DHT22;8462;53.156;8.220;2023-09-18T07:19:32;22.20;99.90
7658;DHT22;8462;53.156;8.220;2023-09-18T07:21:59;22.40;99.90
7658;DHT22;8462;53.156;8.220;2023-09-18T07:24:26;22.50;99.90
7658;DHT22;8462;53.156;8.220;2023-09-18T07:26:53;22.50;99.90
7658;DHT22;8462;53.156;8.220;2023-09-18T07:29:22;22.60;99.90
7658;DHT22;8462;53.156;8.220;2023-09-18T07:31:51;22.70;99.90
7658;DHT22;8462;53.156;8.220;2023-09-18T07:34:18;22.70;99.90
7658;DHT22;8462;53.156;8.220;2023-09-18T07:36:46;22.80;99.90
7658;DHT22;8462;53.156;8.220;2023-09-18T07:39:19;22.80;99.90
7658;DHT22;8462;53.156;8.220;2023-09-18T07:41:46;22.80;99.90
7658;DHT22;8462;53.156;8.220;2023-09-18T07:44:20;22.80;99.90
7658;DHT22;8462;53.156;8.220;2023-09-18T07:46:47;22.90;99.90
7658;DHT22;8462;53.156;8.220;2023-09-18T07:49:17;22.80;99.90
7658;DHT22;8462;53.156;8.220;2023-09-18T07:51:44;22.80;99.90
7658;DHT22;8462;53.156;8.220;2023-09-18T07:54:16;22.80;99.90
7658;DHT22;8462;53.156;8.220;2023-09-18T07:56:43;22.80;99.90
7658;DHT22;8462;53.156;8.220;2023-09-18T07:59:10;22.90;99.90
7658;DHT22;8462;53.156;8.220;2023-09-18T08:01:37;22.90;99.90
7658;DHT22;8462;53.156;8.220;2023-09-18T08:04:04;23.00;99.90
7658;DHT22;8462;53.156;8.220;2023-09-18T08:06:31;23.00;99.90
7658;DHT22;8462;53.156;8.220;2023-09-18T08:08:58;23.10;99.90
7658;DHT22;8462;53.156;8.220;2023-09-18T08:11:27;23.10;99.90
7658;DHT22;8462;53.156;8.220;2023-09-18T08:13:53;23.10;99.90
7658;DHT22;8462;53.156;8.220;2023-09-18T08:16:20;23.10;99.90
7658;DHT22;8462;53.156;8.220;2023-09-18T08:18:48;23.20;99.90
7658;DHT22;8462;53.156;8.220;2023-09-18T08:21:15;23.20;99.90
7658;DHT22;8462;53.156;8.220;2023-09-18T08:23:43;23.30;99.90
7658;DHT22;8462;53.156;8.220;2023-09-18T08:26:10;23.30;99.90
7658;DHT22;8462;53.156;8.220;2023-09-18T08:28:39;23.20;99.90
7658;DHT22;8462;53.156;8.220;2023-09-18T08:31:09;23.20;99.90
7658;DHT22;8462;53.156;8.220;2023-09-18T08:33:36;23.10;99.90
7658;DHT22;8462;53.156;8.220;2023-09-18T08:36:03;23.10;99.90
7658;DHT22;8462;53.156;8.220;2023-09-18T08:38:31;23.00;99.90
7658;DHT22;8462;53.156;8.220;2023-09-18T08:40:58;22.90;99.90
7658;DHT22;8462;53.156;8.220;2023-09-18T08:43:26;22.80;99.90
7658;DHT22;8462;53.156;8.220;2023-09-18T08:45:55;22.80;99.90
7658;DHT22;8462;53.156;8.220;2023-09-18T08:48:28;22.70;99.90
7658;DHT22;8462;53.156;8.220;2023-09-18T08:51:01;22.70;99.90
7658;DHT22;8462;53.156;8.220;2023-09-18T08:53:29;22.70;99.90
7658;DHT22;8462;53.156;8.220;2023-09-18T08:55:56;22.80;99.90
7658;DHT22;8462;53.156;8.220;2023-09-18T08:58:25;22.90;99.90
7658;DHT22;8462;53.156;8.220;2023-09-18T09:00:52;23.00;99.90
7658;DHT22;8462;53.156;8.220;2023-09-18T09:03:22;23.10;99.90
7658;DHT22;8462;53.156;8.220;2023-09-18T09:05:49;23.20;99.90
7658;DHT22;8462;53.156;8.220;2023-09-18T09:08:16;23.20;99.90
7658;DHT22;8462;53.156;8.220;2023-09-18T09:10:43;23.30;99.90
7658;DHT22;8462;53.156;8.220;2023-09-18T09:13:10;23.40;99.90
7658;DHT22;8462;53.156;8.220;2023-09-18T09:15:44;23.60;99.90
7658;DHT22;8462;53.156;8.220;2023-09-18T09:18:12;24.00;99.90
7658;DHT22;8462;53.156;8.220;2023-09-18T09:20:52;24.30;99.90
7658;DHT22;8462;53.156;8.220;2023-09-18T09:23:20;24.50;99.90
7658;DHT22;8462;53.156;8.220;2023-09-18T09:25:47;24.50;99.90
7658;DHT22;8462;53.156;8.220;2023-09-18T09:28:13;24.60;99.90
7658;DHT22;8462;53.156;8.220;2023-09-18T09:30:42;24.70;99.90
7658;DHT22;8462;53.156;8.220;2023-09-18T09:33:12;24.80;99.90
7658;DHT22;8462;53.156;8.220;2023-09-18T09:35:40;24.80;99.90
7658;DHT22;8462;53.156;8.220;2023-09-18T09:38:08;24.70;99.90
7658;DHT22;8462;53.156;8.220;2023-09-18T09:40:39;24.60;99.90
7658;DHT22;8462;53.156;8.220;2023-09-18T09:43:08;24.60;99.90
7658;DHT22;8462;53.156;8.220;2023-09-18T09:45:35;24.60;99.90
7658;DHT22;8462;53.156;8.220;2023-09-18T09:48:03;24.60;99.90
7658;DHT22;8462;53.156;8.220;2023-09-18T09:50:31;24.60;99.90
7658;DHT22;8462;53.156;8.220;2023-09-18T09:53:00;24.60;99.90
7658;DHT22;8462;53.156;8.220;2023-09-18T09:55:29;24.70;99.90
7658;DHT22;8462;53.156;8.220;2023-09-18T09:57:57;24.90;99.90
7658;DHT22;8462;53.156;8.220;2023-09-18T10:00:30;25.00;99.90
7658;DHT22;8462;53.156;8.220;2023-09-18T10:03:04;25.20;99.90
7658;DHT22;8462;53.156;8.220;2023-09-18T10:05:34;25.40;99.90
7658;DHT22;8462;53.156;8.220;2023-09-18T10:08:06;25.50;99.90
7658;DHT22;8462;53.156;8.220;2023-09-18T10:10:36;25.70;99.90
7658;DHT22;8462;53.156;8.220;2023-09-18T10:13:09;25.70;99.90
7658;DHT22;8462;53.156;8.220;2023-09-18T10:15:37;25.70;99.70
7658;DHT22;8462;53.156;8.220;2023-09-18T10:18:07;25.80;99.80
7658;DHT22;8462;53.156;8.220;2023-09-18T10:20:40;25.70;99.30
7658;DHT22;8462;53.156;8.220;2023-09-18T10:23:18;25.60;99.40
7658;DHT22;8462;53.156;8.220;2023-09-18T10:25:52;25.50;99.50
7658;DHT22;8462;53.156;8.220;2023-09-18T10:28:23;25.50;99.40
7658;DHT22;8462;53.156;8.220;2023-09-18T10:30:52;25.50;99.50
7658;DHT22;8462;53.156;8.220;2023-09-18T10:33:19;25.40;99.50
7658;DHT22;8462;53.156;8.220;2023-09-18T10:35:48;25.30;99.50
7658;DHT22;8462;53.156;8.220;2023-09-18T10:38:17;25.40;99.80
7658;DHT22;8462;53.156;8.220;2023-09-18T10:40:46;25.40;99.50
7658;DHT22;8462;53.156;8.220;2023-09-18T10:43:15;25.30;99.50
7658;DHT22;8462;53.156;8.220;2023-09-18T10:45:43;25.30;99.60
7658;DHT22;8462;53.156;8.220;2023-09-18T10:48:11;25.40;99.50
7658;DHT22;8462;53.156;8.220;2023-09-18T10:50:39;25.50;99.60
7658;DHT22;8462;53.156;8.220;2023-09-18T10:53:07;25.60;99.50
7658;DHT22;8462;53.156;8.220;2023-09-18T10:55:35;25.80;99.30
7658;DHT22;8462;53.156;8.220;2023-09-18T10:58:04;26.00;98.30
7658;DHT22;8462;53.156;8.220;2023-09-18T11:00:32;26.20;98.40
7658;DHT22;8462;53.156;8.220;2023-09-18T11:03:15;26.40;98.00
7658;DHT22;8462;53.156;8.220;2023-09-18T11:05:45;26.60;97.60
7658;DHT22;8462;53.156;8.220;2023-09-18T11:08:26;26.60;97.10
7658;DHT22;8462;53.156;8.220;2023-09-18T11:11:00;26.50;96.90
7658;DHT22;8462;53.156;8.220;2023-09-18T11:13:34;26.30;97.20
7658;DHT22;8462;53.156;8.220;2023-09-18T11:16:15;26.20;97.40
7658;DHT22;8462;53.156;8.220;2023-09-18T11:18:42;26.00;97.60
7658;DHT22;8462;53.156;8.220;2023-09-18T11:21:10;25.90;97.70
7658;DHT22;8462;53.156;8.220;2023-09-18T11:23:39;25.90;98.00
7658;DHT22;8462;53.156;8.220;2023-09-18T11:26:10;26.00;98.00
7658;DHT22;8462;53.156;8.220;2023-09-18T11:28:38;26.00;97.70
7658;DHT22;8462;53.156;8.220;2023-09-18T11:31:05;26.10;97.80
7658;DHT22;8462;53.156;8.220;2023-09-18T11:33:35;26.20;97.10
7658;DHT22;8462;53.156;8.220;2023-09-18T11:36:04;26.30;97.10
7658;DHT22;8462;53.156;8.220;2023-09-18T11:38:34;26.40;97.20
7658;DHT22;8462;53.156;8.220;2023-09-18T11:41:22;26.50;97.00
7658;DHT22;8462;53.156;8.220;2023-09-18T11:43:49;26.70;96.70
7658;DHT22;8462;53.156;8.220;2023-09-18T11:46:18;26.80;96.70
7658;DHT22;8462;53.156;8.220;2023-09-18T11:48:48;26.80;96.00
7658;DHT22;8462;53.156;8.220;2023-09-18T11:51:22;26.80;96.00
7658;DHT22;8462;53.156;8.220;2023-09-18T11:53:53;26.70;95.50
7658;DHT22;8462;53.156;8.220;2023-09-18T11:56:22;26.80;95.20
7658;DHT22;8462;53.156;8.220;2023-09-18T11:58:51;26.90;95.10
7658;DHT22;8462;53.156;8.220;2023-09-18T12:01:20;26.90;94.70
7658;DHT22;8462;53.156;8.220;2023-09-18T12:03:53;26.90;94.60
7658;DHT22;8462;53.156;8.220;2023-09-18T12:06:20;27.00;94.40
7658;DHT22;8462;53.156;8.220;2023-09-18T12:08:48;27.10;94.30
7658;DHT22;8462;53.156;8.220;2023-09-18T12:11:18;27.20;94.20
7658;DHT22;8462;53.156;8.220;2023-09-18T12:13:47;27.30;94.10
7658;DHT22;8462;53.156;8.220;2023-09-18T12:16:14;27.20;93.40
7658;DHT22;8462;53.156;8.220;2023-09-18T12:18:45;27.20;93.50
7658;DHT22;8462;53.156;8.220;2023-09-18T12:21:13;27.10;93.70
7658;DHT22;8462;53.156;8.220;2023-09-18T12:23:42;27.10;93.30
7658;DHT22;8462;53.156;8.220;2023-09-18T12:26:11;27.10;93.40
7658;DHT22;8462;53.156;8.220;2023-09-18T12:28:40;27.00;93.60
7658;DHT22;8462;53.156;8.220;2023-09-18T12:31:11;27.00;93.90
7658;DHT22;8462;53.156;8.220;2023-09-18T12:33:39;27.10;93.70
7658;DHT22;8462;53.156;8.220;2023-09-18T12:36:07;27.00;93.60
7658;DHT22;8462;53.156;8.220;2023-09-18T12:38:35;27.00;94.00
7658;DHT22;8462;53.156;8.220;2023-09-18T12:41:03;27.00;93.90
7658;DHT22;8462;53.156;8.220;2023-09-18T12:43:37;27.10;93.60
7658;DHT22;8462;53.156;8.220;2023-09-18T12:46:06;27.10;93.10
7658;DHT22;8462;53.156;8.220;2023-09-18T12:48:38;27.00;92.80
7658;DHT22;8462;53.156;8.220;2023-09-18T12:51:11;26.90;93.10
7658;DHT22;8462;53.156;8.220;2023-09-18T12:53:40;26.90;93.40
7658;DHT22;8462;53.156;8.220;2023-09-18T12:56:07;26.90;93.70
7658;DHT22;8462;53.156;8.220;2023-09-18T12:58:35;26.90;93.40
7658;DHT22;8462;53.156;8.220;2023-09-18T13:01:07;26.90;93.20
7658;DHT22;8462;53.156;8.220;2023-09-18T13:03:40;27.00;93.30
7658;DHT22;8462;53.156;8.220;2023-09-18T13:06:11;27.00;92.80
7658;DHT22;8462;53.156;8.220;2023-09-18T13:08:38;27.00;92.40
7658;DHT22;8462;53.156;8.220;2023-09-18T13:11:05;27.00;92.70
7658;DHT22;8462;53.156;8.220;2023-09-18T13:13:33;27.10;93.00
7658;DHT22;8462;53.156;8.220;2023-09-18T13:16:04;27.10;92.50
7658;DHT22;8462;53.156;8.220;2023-09-18T13:18:31;27.10;92.30
7658;DHT22;8462;53.156;8.220;2023-09-18T13:20:58;27.10;92.30
7658;DHT22;8462;53.156;8.220;2023-09-18T13:23:30;27.10;92.40
7658;DHT22;8462;53.156;8.220;2023-09-18T13:26:02;27.10;92.70
7658;DHT22;8462;53.156;8.220;2023-09-18T13:28:29;27.20;93.10
7658;DHT22;8462;53.156;8.220;2023-09-18T13:30:58;27.20;92.20
7658;DHT22;8462;53.156;8.220;2023-09-18T13:33:26;27.30;91.60
7658;DHT22;8462;53.156;8.220;2023-09-18T13:35:53;27.30;91.40
7658;DHT22;8462;53.156;8.220;2023-09-18T13:38:21;27.30;91.50
7658;DHT22;8462;53.156;8.220;2023-09-18T13:40:50;27.30;91.60
7658;DHT22;8462;53.156;8.220;2023-09-18T13:43:17;27.10;91.60
7658;DHT22;8462;53.156;8.220;2023-09-18T13:45:48;27.00;91.60
7658;DHT22;8462;53.156;8.220;2023-09-18T13:48:17;27.00;92.10
7658;DHT22;8462;53.156;8.220;2023-09-18T13:50:45;27.00;92.00
7658;DHT22;8462;53.156;8.220;2023-09-18T13:53:12;27.00;91.60
7658;DHT22;8462;53.156;8.220;2023-09-18T13:55:39;27.00;91.60
7658;DHT22;8462;53.156;8.220;2023-09-18T13:58:08;27.00;91.50
7658;DHT22;8462;53.156;8.220;2023-09-18T14:00:35;27.00;91.40
7658;DHT22;8462;53.156;8.220;2023-09-18T14:03:02;27.20;91.80
7658;DHT22;8462;53.156;8.220;2023-09-18T14:05:29;27.30;91.30
7658;DHT22;8462;53.156;8.220;2023-09-18T14:07:58;27.40;91.20
7658;DHT22;8462;53.156;8.220;2023-09-18T14:10:27;27.40;91.10
7658;DHT22;8462;53.156;8.220;2023-09-18T14:12:54;27.30;91.40
7658;DHT22;8462;53.156;8.220;2023-09-18T14:15:22;27.20;91.60
7658;DHT22;8462;53.156;8.220;2023-09-18T14:17:49;27.10;91.40
7658;DHT22;8462;53.156;8.220;2023-09-18T14:20:16;27.00;91.60
7658;DHT22;8462;53.156;8.220;2023-09-18T14:22:45;27.00;91.50
7658;DHT22;8462;53.156;8.220;2023-09-18T14:25:15;26.90;91.60
7658;DHT22;8462;53.156;8.220;2023-09-18T14:27:42;26.90;91.60
7658;DHT22;8462;53.156;8.220;2023-09-18T14:30:10;26.90;91.60
7658;DHT22;8462;53.156;8.220;2023-09-18T14:32:40;26.90;91.50
7658;DHT22;8462;53.156;8.220;2023-09-18T14:35:07;26.90;91.70
7658;DHT22;8462;53.156;8.220;2023-09-18T14:37:35;27.00;91.80
7658;DHT22;8462;53.156;8.220;2023-09-18T14:40:02;26.90;91.90
7658;DHT22;8462;53.156;8.220;2023-09-18T14:42:29;26.90;91.80
7658;DHT22;8462;53.156;8.220;2023-09-18T14:44:56;26.90;92.00
7658;DHT22;8462;53.156;8.220;2023-09-18T14:47:23;26.80;92.00
7658;DHT22;8462;53.156;8.220;2023-09-18T14:49:51;26.80;92.00
7658;DHT22;8462;53.156;8.220;2023-09-18T14:52:18;26.80;91.90
7658;DHT22;8462;53.156;8.220;2023-09-18T14:54:48;26.70;91.90
7658;DHT22;8462;53.156;8.220;2023-09-18T14:57:15;26.70;91.90
7658;DHT22;8462;53.156;8.220;2023-09-18T14:59:42;26.70;92.00
7658;DHT22;8462;53.156;8.220;2023-09-18T15:02:13;26.60;92.20
7658;DHT22;8462;53.156;8.220;2023-09-18T15:04:42;26.60;92.30
7658;DHT22;8462;53.156;8.220;2023-09-18T15:07:10;26.60;92.20
7658;DHT22;8462;53.156;8.220;2023-09-18T15:09:37;26.60;92.30
7658;DHT22;8462;53.156;8.220;2023-09-18T15:12:05;26.60;92.10
7658;DHT22;8462;53.156;8.220;2023-09-18T15:14:34;26.60;91.80
7658;DHT22;8462;53.156;8.220;2023-09-18T15:17:01;26.60;91.80
7658;DHT22;8462;53.156;8.220;2023-09-18T15:19:28;26.60;91.90
7658;DHT22;8462;53.156;8.220;2023-09-18T15:21:55;26.50;91.70
7658;DHT22;8462;53.156;8.220;2023-09-18T15:24:24;26.30;91.70
7658;DHT22;8462;53.156;8.220;2023-09-18T15:26:51;26.20;92.10
7658;DHT22;8462;53.156;8.220;2023-09-18T15:29:18;26.00;92.20
7658;DHT22;8462;53.156;8.220;2023-09-18T15:31:45;25.90;92.60
7658;DHT22;8462;53.156;8.220;2023-09-18T15:34:13;25.80;92.60
7658;DHT22;8462;53.156;8.220;2023-09-18T15:36:40;25.70;92.80
7658;DHT22;8462;53.156;8.220;2023-09-18T15:39:07;25.60;92.90
7658;DHT22;8462;53.156;8.220;2023-09-18T15:41:36;25.60;93.00
7658;DHT22;8462;53.156;8.220;2023-09-18T15:44:05;25.60;93.20
7658;DHT22;8462;53.156;8.220;2023-09-18T15:46:32;25.60;93.30
7658;DHT22;8462;53.156;8.220;2023-09-18T15:49:00;25.70;93.50
7658;DHT22;8462;53.156;8.220;2023-09-18T15:51:27;25.60;93.50
7658;DHT22;8462;53.156;8.220;2023-09-18T15:53:54;25.50;93.40
7658;DHT22;8462;53.156;8.220;2023-09-18T15:56:21;25.30;91.90
7658;DHT22;8462;53.156;8.220;2023-09-18T15:58:49;25.00;91.60
7658;DHT22;8462;53.156;8.220;2023-09-18T16:01:16;24.70;92.00
7658;DHT22;8462;53.156;8.220;2023-09-18T16:03:44;24.60;92.80
7658;DHT22;8462;53.156;8.220;2023-09-18T16:06:18;24.40;93.20
7658;DHT22;8462;53.156;8.220;2023-09-18T16:08:47;24.30;93.50
7658;DHT22;8462;53.156;8.220;2023-09-18T16:11:16;24.20;94.00
7658;DHT22;8462;53.156;8.220;2023-09-18T16:13:43;24.20;93.90
7658;DHT22;8462;53.156;8.220;2023-09-18T16:16:12;24.20;94.00
7658;DHT22;8462;53.156;8.220;2023-09-18T16:18:39;24.20;94.00
7658;DHT22;8462;53.156;8.220;2023-09-18T16:21:06;24.10;93.80
7658;DHT22;8462;53.156;8.220;2023-09-18T16:23:34;24.00;93.90
7658;DHT22;8462;53.156;8.220;2023-09-18T16:26:01;23.90;94.20
7658;DHT22;8462;53.156;8.220;2023-09-18T16:28:28;23.80;94.40
7658;DHT22;8462;53.156;8.220;2023-09-18T16:30:55;23.70;94.70
7658;DHT22;8462;53.156;8.220;2023-09-18T16:33:31;23.70;94.90
7658;DHT22;8462;53.156;8.220;2023-09-18T16:35:58;23.60;95.20
7658;DHT22;8462;53.156;8.220;2023-09-18T16:38:25;23.50;95.50
7658;DHT22;8462;53.156;8.220;2023-09-18T16:40:52;23.40;95.70
7658;DHT22;8462;53.156;8.220;2023-09-18T16:43:19;23.40;96.10
7658;DHT22;8462;53.156;8.220;2023-09-18T16:45:47;23.30;96.40
7658;DHT22;8462;53.156;8.220;2023-09-18T16:48:14;23.30;96.70
7658;DHT22;8462;53.156;8.220;2023-09-18T16:50:42;23.10;97.00
7658;DHT22;8462;53.156;8.220;2023-09-18T16:53:09;23.00;97.30
7658;DHT22;8462;53.156;8.220;2023-09-18T16:56:52;22.90;97.40
7658;DHT22;8462;53.156;8.220;2023-09-18T17:06:49;22.60;97.90
7658;DHT22;8462;53.156;8.220;2023-09-18T17:09:16;22.50;98.30
7658;DHT22;8462;53.156;8.220;2023-09-18T17:11:44;22.40;98.90
7658;DHT22;8462;53.156;8.220;2023-09-18T17:14:11;22.40;98.50
7658;DHT22;8462;53.156;8.220;2023-09-18T17:16:39;22.30;98.70
7658;DHT22;8462;53.156;8.220;2023-09-18T17:19:06;22.20;99.00
7658;DHT22;8462;53.156;8.220;2023-09-18T17:21:35;22.20;99.30
7658;DHT22;8462;53.156;8.220;2023-09-18T17:24:04;22.00;99.60
7658;DHT22;8462;53.156;8.220;2023-09-18T17:26:32;21.90;99.90
7658;DHT22;8462;53.156;8.220;2023-09-18T17:28:59;21.80;99.90
7658;DHT22;8462;53.156;8.220;2023-09-18T17:31:26;21.80;99.90
7658;DHT22;8462;53.156;8.220;2023-09-18T17:33:53;21.60;99.90
7658;DHT22;8462;53.156;8.220;2023-09-18T17:36:21;21.50;99.90
7658;DHT22;8462;53.156;8.220;2023-09-18T17:38:48;21.50;99.90
7658;DHT22;8462;53.156;8.220;2023-09-18T17:41:17;21.40;99.90
7658;DHT22;8462;53.156;8.220;2023-09-18T17:43:44;21.40;99.90
7658;DHT22;8462;53.156;8.220;2023-09-18T17:46:12;21.30;99.90
7658;DHT22;8462;53.156;8.220;2023-09-18T17:48:39;21.30;99.90
7658;DHT22;8462;53.156;8.220;2023-09-18T17:51:06;21.30;99.90
7658;DHT22;8462;53.156;8.220;2023-09-18T17:53:34;21.30;99.90
7658;DHT22;8462;53.156;8.220;2023-09-18T17:56:02;21.20;99.90
7658;DHT22;8462;53.156;8.220;2023-09-18T17:58:30;21.20;99.90
7658;DHT22;8462;53.156;8.220;2023-09-18T18:00:57;21.30;99.90
7658;DHT22;8462;53.156;8.220;2023-09-18T18:03:25;21.30;99.90
7658;DHT22;8462;53.156;8.220;2023-09-18T18:05:52;21.30;99.90
7658;DHT22;8462;53.156;8.220;2023-09-18T18:08:19;21.30;99.90
7658;DHT22;8462;53.156;8.220;2023-09-18T18:10:46;21.30;99.90
7658;DHT22;8462;53.156;8.220;2023-09-18T18:13:13;21.40;99.90
7658;DHT22;8462;53.156;8.220;2023-09-18T18:15:42;21.40;99.90
7658;DHT22;8462;53.156;8.220;2023-09-18T18:18:10;21.50;99.90
7658;DHT22;8462;53.156;8.220;2023-09-18T18:20:42;21.60;99.90
7658;DHT22;8462;53.156;8.220;2023-09-18T18:23:11;21.60;99.90
7658;DHT22;8462;53.156;8.220;2023-09-18T18:25:39;21.50;99.50
7658;DHT22;8462;53.156;8.220;2023-09-18T18:28:07;21.30;99.90
7658;DHT22;8462;53.156;8.220;2023-09-18T18:30:36;21.10;99.90
7658;DHT22;8462;53.156;8.220;2023-09-18T18:33:06;20.80;99.90
7658;DHT22;8462;53.156;8.220;2023-09-18T18:35:33;20.50;99.90
7658;DHT22;8462;53.156;8.220;2023-09-18T18:38:01;20.30;99.90
7658;DHT22;8462;53.156;8.220;2023-09-18T18:40:30;20.10;99.90
7658;DHT22;8462;53.156;8.220;2023-09-18T18:42:57;19.90;99.90
7658;DHT22;8462;53.156;8.220;2023-09-18T18:45:26;19.90;99.90
7658;DHT22;8462;53.156;8.220;2023-09-18T18:47:53;19.70;99.90
7658;DHT22;8462;53.156;8.220;2023-09-18T18:50:24;19.70;99.90
7658;DHT22;8462;53.156;8.220;2023-09-18T18:52:51;19.60;99.90
7658;DHT22;8462;53.156;8.220;2023-09-18T18:55:18;19.60;99.90
7658;DHT22;8462;53.156;8.220;2023-09-18T18:57:47;19.50;99.90
7658;DHT22;8462;53.156;8.220;2023-09-18T19:00:14;19.50;99.90
7658;DHT22;8462;53.156;8.220;2023-09-18T19:02:44;19.50;99.90
7658;DHT22;8462;53.156;8.220;2023-09-18T19:05:11;19.40;99.90
7658;DHT22;8462;53.156;8.220;2023-09-18T19:07:39;19.40;99.90
7658;DHT22;8462;53.156;8.220;2023-09-18T19:10:07;19.40;99.90
7658;DHT22;8462;53.156;8.220;2023-09-18T19:12:35;19.40;99.90
7658;DHT22;8462;53.156;8.220;2023-09-18T19:15:05;19.40;99.90
7658;DHT22;8462;53.156;8.220;2023-09-18T19:17:32;19.40;99.90
7658;DHT22;8462;53.156;8.220;2023-09-18T19:19:59;19.40;99.90
7658;DHT22;8462;53.156;8.220;2023-09-18T19:22:26;19.40;99.90
7658;DHT22;8462;53.156;8.220;2023-09-18T19:24:54;19.40;99.90
7658;DHT22;8462;53.156;8.220;2023-09-18T19:27:21;19.40;99.90
7658;DHT22;8462;53.156;8.220;2023-09-18T19:29:49;19.30;99.90
7658;DHT22;8462;53.156;8.220;2023-09-18T19:32:23;19.30;99.90
7658;DHT22;8462;53.156;8.220;2023-09-18T19:34:53;19.30;99.90
7658;DHT22;8462;53.156;8.220;2023-09-18T19:37:20;19.30;99.90
7658;DHT22;8462;53.156;8.220;2023-09-18T19:39:47;19.30;99.90
7658;DHT22;8462;53.156;8.220;2023-09-18T19:42:15;19.30;99.90
7658;DHT22;8462;53.156;8.220;2023-09-18T19:44:42;19.20;99.90
7658;DHT22;8462;53.156;8.220;2023-09-18T19:47:09;19.20;99.90
7658;DHT22;8462;53.156;8.220;2023-09-18T19:49:37;19.10;99.90
7658;DHT22;8462;53.156;8.220;2023-09-18T19:52:06;19.00;99.90
7658;DHT22;8462;53.156;8.220;2023-09-18T19:54:34;19.00;99.90
7658;DHT22;8462;53.156;8.220;2023-09-18T19:57:01;19.00;99.90
7658;DHT22;8462;53.156;8.220;2023-09-18T19:59:30;18.90;99.90
7658;DHT22;8462;53.156;8.220;2023-09-18T20:01:58;18.90;99.90
7658;DHT22;8462;53.156;8.220;2023-09-18T20:04:25;18.90;99.90
7658;DHT22;8462;53.156;8.220;2023-09-18T20:06:54;18.80;99.90
7658;DHT22;8462;53.156;8.220;2023-09-18T20:09:22;18.80;99.90
7658;DHT22;8462;53.156;8.220;2023-09-18T20:11:49;18.80;99.90
7658;DHT22;8462;53.156;8.220;2023-09-18T20:14:17;18.80;99.90
7658;DHT22;8462;53.156;8.220;2023-09-18T20:16:46;18.80;99.90
7658;DHT22;8462;53.156;8.220;2023-09-18T20:19:14;18.80;99.90
7658;DHT22;8462;53.156;8.220;2023-09-18T20:21:42;18.80;99.90
7658;DHT22;8462;53.156;8.220;2023-09-18T20:24:10;18.90;99.90
7658;DHT22;8462;53.156;8.220;2023-09-18T20:26:37;18.90;99.90
7658;DHT22;8462;53.156;8.220;2023-09-18T20:29:04;18.90;99.90
7658;DHT22;8462;53.156;8.220;2023-09-18T20:31:31;18.90;99.90
7658;DHT22;8462;53.156;8.220;2023-09-18T20:34:00;18.90;99.90
7658;DHT22;8462;53.156;8.220;2023-09-18T20:36:28;18.90;99.90
7658;DHT22;8462;53.156;8.220;2023-09-18T20:38:55;19.00;99.90
7658;DHT22;8462;53.156;8.220;2023-09-18T20:41:24;19.00;99.90
7658;DHT22;8462;53.156;8.220;2023-09-18T20:43:51;19.00;99.90
7658;DHT22;8462;53.156;8.220;2023-09-18T20:46:18;19.00;99.90
7658;DHT22;8462;53.156;8.220;2023-09-18T20:48:45;19.00;99.90
7658;DHT22;8462;53.156;8.220;2023-09-18T20:51:13;19.10;99.90
7658;DHT22;8462;53.156;8.220;2023-09-18T20:53:40;19.10;99.90
7658;DHT22;8462;53.156;8.220;2023-09-18T20:56:07;19.10;99.90
7658;DHT22;8462;53.156;8.220;2023-09-18T20:58:34;19.10;99.90
7658;DHT22;8462;53.156;8.220;2023-09-18T21:01:01;19.10;99.90
7658;DHT22;8462;53.156;8.220;2023-09-18T21:03:29;19.20;99.90
7658;DHT22;8462;53.156;8.220;2023-09-18T21:05:56;19.20;99.90
7658;DHT22;8462;53.156;8.220;2023-09-18T21:08:25;19.20;99.90
7658;DHT22;8462;53.156;8.220;2023-09-18T21:10:54;19.20;99.90
7658;DHT22;8462;53.156;8.220;2023-09-18T21:13:21;19.20;99.90
7658;DHT22;8462;53.156;8.220;2023-09-18T21:15:48;19.20;99.90
7658;DHT22;8462;53.156;8.220;2023-09-18T21:18:18;19.30;99.90
7658;DHT22;8462;53.156;8.220;2023-09-18T21:20:45;19.30;99.90
7658;DHT22;8462;53.156;8.220;2023-09-18T21:23:12;19.30;99.90
7658;DHT22;8462;53.156;8.220;2023-09-18T21:25:40;19.30;99.90
7658;DHT22;8462;53.156;8.220;2023-09-18T21:28:07;19.20;99.90
7658;DHT22;8462;53.156;8.220;2023-09-18T21:30:35;19.20;99.90
7658;DHT22;8462;53.156;8.220;2023-09-18T21:33:03;19.10;99.90
7658;DHT22;8462;53.156;8.220;2023-09-18T21:35:31;19.10;99.90
7658;DHT22;8462;53.156;8.220;2023-09-18T21:37:58;19.10;99.90
7658;DHT22;8462;53.156;8.220;2023-09-18T21:40:27;19.00;99.90
7658;DHT22;8462;53.156;8.220;2023-09-18T21:42:55;19.00;99.90
7658;DHT22;8462;53.156;8.220;2023-09-18T21:45:22;19.00;99.90
7658;DHT22;8462;53.156;8.220;2023-09-18T21:47:50;19.00;99.90
7658;DHT22;8462;53.156;8.220;2023-09-18T21:50:18;19.00;99.90
7658;DHT22;8462;53.156;8.220;2023-09-18T21:52:46;19.00;99.90
7658;DHT22;8462;53.156;8.220;2023-09-18T21:55:14;19.00;99.90
7658;DHT22;8462;53.156;8.220;2023-09-18T21:57:41;19.00;99.90
7658;DHT22;8462;53.156;8.220;2023-09-18T22:00:11;19.00;99.90
7658;DHT22;8462;53.156;8.220;2023-09-18T22:02:42;19.00;99.90
7658;DHT22;8462;53.156;8.220;2023-09-18T22:05:10;19.00;99.90
7658;DHT22;8462;53.156;8.220;2023-09-18T22:07:38;19.00;99.90
7658;DHT22;8462;53.156;8.220;2023-09-18T22:10:06;19.00;99.90
7658;DHT22;8462;53.156;8.220;2023-09-18T22:12:33;19.00;99.90
7658;DHT22;8462;53.156;8.220;2023-09-18T22:15:00;19.00;99.90
7658;DHT22;8462;53.156;8.220;2023-09-18T22:17:28;19.00;99.90
7658;DHT22;8462;53.156;8.220;2023-09-18T22:19:55;19.10;99.90
7658;DHT22;8462;53.156;8.220;2023-09-18T22:22:24;19.10;99.90
7658;DHT22;8462;53.156;8.220;2023-09-18T22:24:53;19.10;99.90
7658;DHT22;8462;53.156;8.220;2023-09-18T22:27:20;19.10;99.90
7658;DHT22;8462;53.156;8.220;2023-09-18T22:29:48;19.20;99.90
7658;DHT22;8462;53.156;8.220;2023-09-18T22:32:17;19.20;99.90
7658;DHT22;8462;53.156;8.220;2023-09-18T22:34:47;19.20;99.90
7658;DHT22;8462;53.156;8.220;2023-09-18T22:37:14;19.20;99.90
7658;DHT22;8462;53.156;8.220;2023-09-18T22:54:50;19.30;99.90
7658;DHT22;8462;53.156;8.220;2023-09-18T22:57:20;19.30;99.90
7658;DHT22;8462;53.156;8.220;2023-09-18T22:59:48;19.30;99.90
7658;DHT22;8462;53.156;8.220;2023-09-18T23:02:16;19.30;99.90
7658;DHT22;8462;53.156;8.220;2023-09-18T23:04:45;19.40;99.90
7658;DHT22;8462;53.156;8.220;2023-09-18T23:07:12;19.40;99.90
7658;DHT22;8462;53.156;8.220;2023-09-18T23:09:40;19.40;99.90
7658;DHT22;8462;53.156;8.220;2023-09-18T23:12:11;19.40;99.90
7658;DHT22;8462;53.156;8.220;2023-09-18T23:14:38;19.40;99.90
7658;DHT22;8462;53.156;8.220;2023-09-18T23:17:06;19.40;99.90
7658;DHT22;8462;53.156;8.220;2023-09-18T23:19:35;19.40;99.90